Anderson, AK

6:02 AM AKDT on September 02, 2014 (GMT -0800)
AKDOT Parks Highway @ Rex Bridge MP 276 | Change Station
CLOSE
Current Station
Personal Weather Station
Location: Anderson, AK
Elevation: 774 ft
Nearby Weather Stations
Active Advisory: Wind Advisory Active Notice: Record Report

Elev 774 ft 64.22 °N, 149.28 °W | Updated 40 minutes ago

Light Rain
Light Rain
46 °F
Feels Like 43 °F
N
6
Wind Variable Wind from West
Gusts 12.0 mph

Today
High -- | Low -- °F
--% Chance of Precip.
Yesterday
High -- | Low -- °F
Precip. -- in
6:41 AM 9:08 PM
First Quarter, 51% visible
Pressure 29.70 in
Visibility 9.0 miles
Clouds Overcast 4800 ft
Windchill 43 °F
Dew Point 45 °F
Humidity 96%
Rainfall 0.00 in
Snow Depth Not available.
UV 0 out of 12
Pollen Not available.
Air Quality Not available.
Flu Activity Not available.
METAR PANN 021353Z AUTO 27008KT 9SM -RA OVC048 07/06 A2967 RMK AO2 SLP055 P0006 T00720056 TSNO

More Conditions Fewer Conditions

Pressure 29.70 in
Visibility 9.0 miles
Clouds Overcast 4800 ft
Windchill 43 °F
Dew Point 45 °F
Humidity 96%
Rainfall 0.00 in
Snow Depth Not available.
UV 0 out of 12
Pollen Not available.
Air Quality Not available.
Flu Activity Not available.
METAR PANN 021353Z AUTO 27008KT 9SM -RA OVC048 07/06 A2967 RMK AO2 SLP055 P0006 T00720056 TSNO

More Conditions Fewer Conditions

10-Day Weather Forecast

Almanac

Astronomy

Sep. 02, 2014 Rise Set
Actual Time 6:41 AM AKDT 9:08 PM AKDT
Civil Twilight 5:48 AM AKDT 10:00 PM AKDT
Nautical Twilight 4:35 AM AKDT 11:13 PM AKDT
Astronomical Twilight 2:28 AM AKDT 1:27 AM AKDT
Moon 5:15 PM AKDT 11:31 PM AKDT
Length of Visible Light 16h 12m
Length of Day
14h 26m
Tomorrow will be 6m 32s shorter.
First Quarter, 51% of the Moon is Illuminated
Today
First Quarter
Sep 8
Full
Sep 15
Last Quarter
Sep 24
New
Oct 1
First Quarter

Today's Extremes

State Highs State Lows

Community

WunderPhotos

Upload Photos

1,749,670 photos uploaded!

WunderBlogs® & News

Nearby

Snow Depth

Station Depth Elevation
Little Chena Ridge 1 in 2000 ft
Munson Ridge 1 in 3100 ft
Monument Creek 0 in 1850 ft
Granite Creek 0 in 1240 ft
Upper Chena 1 in 2850 ft

Earthquake Activity

City Distance Mag. Time & Date
No recent earthquake activity has been reported nearby.
Minimum magnitude displayed is 2.5.

Coastal Water Temperatures

Place Temperature
No Stations Reporting

Nearby Weather Stations